createdAt,value
2022-12-23T00:01:01.702Z,10.20
2022-12-23T00:03:30.516Z,10.20
2022-12-23T00:05:58.935Z,10.20
2022-12-23T00:08:27.250Z,10.20
2022-12-23T00:10:56.671Z,10.20
2022-12-23T00:13:42.185Z,10.20
2022-12-23T00:16:13.839Z,10.20
2022-12-23T00:18:41.984Z,10.20
2022-12-23T00:21:15.288Z,10.20
2022-12-23T00:23:45.386Z,10.20
2022-12-23T00:26:26.624Z,10.20
2022-12-23T00:28:57.627Z,10.20
2022-12-23T00:31:25.482Z,10.30
2022-12-23T00:33:54.357Z,10.20
2022-12-23T00:36:30.079Z,10.20
2022-12-23T00:39:17.776Z,10.20
2022-12-23T00:42:03.526Z,10.20
2022-12-23T00:44:30.495Z,10.20
2022-12-23T00:46:57.471Z,10.20
2022-12-23T00:49:42.856Z,10.10
2022-12-23T00:52:12.669Z,10.20
2022-12-23T00:54:39.992Z,10.20
2022-12-23T00:57:06.980Z,10.20
2022-12-23T00:59:34.269Z,10.20
2022-12-23T01:02:19.929Z,10.10
2022-12-23T01:05:05.314Z,10.10
2022-12-23T01:07:32.324Z,10.10
2022-12-23T01:09:59.284Z,10.20
2022-12-23T01:12:26.301Z,10.10
2022-12-23T01:14:53.379Z,10.10
2022-12-23T01:17:20.417Z,10.10
2022-12-23T01:19:47.339Z,10.10
2022-12-23T01:22:14.281Z,10.10
2022-12-23T01:24:41.155Z,10.20
2022-12-23T01:27:08.081Z,10.10
2022-12-23T01:29:35.022Z,10.10
2022-12-23T01:32:01.987Z,10.10
2022-12-23T01:34:36.190Z,10.10
2022-12-23T01:37:04.081Z,10.10
2022-12-23T01:39:30.952Z,10.10
2022-12-23T01:42:16.239Z,10.10
2022-12-23T01:44:59.847Z,10.10
2022-12-23T01:47:40.303Z,10.10
2022-12-23T01:50:16.293Z,10.10
2022-12-23T01:53:08.487Z,10.10
2022-12-23T01:55:49.503Z,10.10
2022-12-23T01:58:38.734Z,10.10
2022-12-23T02:01:25.560Z,10.10
2022-12-23T02:03:57.747Z,10.00
2022-12-23T02:06:46.799Z,10.00
2022-12-23T02:09:22.734Z,10.00
2022-12-23T02:12:13.862Z,10.00
2022-12-23T02:15:17.728Z,10.00
2022-12-23T02:17:58.167Z,10.00
2022-12-23T02:20:58.963Z,10.00
2022-12-23T02:24:02.952Z,10.00
2022-12-23T02:27:07.705Z,10.00
2022-12-23T02:30:12.064Z,10.00
2022-12-23T02:33:10.497Z,10.00
2022-12-23T02:35:40.388Z,10.00
2022-12-23T02:38:12.376Z,10.00
2022-12-23T02:41:06.777Z,10.00
2022-12-23T02:43:55.736Z,10.00
2022-12-23T02:46:31.869Z,10.00
2022-12-23T02:49:05.199Z,10.00
2022-12-23T02:51:37.095Z,10.00
2022-12-23T02:54:06.375Z,10.00
2022-12-23T02:56:37.050Z,9.90
2022-12-23T02:59:15.512Z,10.00
2022-12-23T03:01:44.636Z,9.90
2022-12-23T03:04:11.771Z,10.00
2022-12-23T03:07:05.902Z,9.90
2022-12-23T03:09:47.023Z,9.90
2022-12-23T03:12:39.422Z,9.90
2022-12-23T03:15:20.089Z,9.90
2022-12-23T03:18:06.401Z,9.90
2022-12-23T03:20:48.906Z,9.90
2022-12-23T03:23:53.535Z,9.90
2022-12-23T03:26:28.478Z,9.90
2022-12-23T03:28:55.443Z,9.90
2022-12-23T03:31:28.601Z,9.90
2022-12-23T03:34:03.796Z,9.90
2022-12-23T03:36:56.190Z,9.90
2022-12-23T03:39:31.135Z,9.90
2022-12-23T03:42:04.387Z,9.90
2022-12-23T03:44:38.971Z,9.90
2022-12-23T03:47:20.096Z,9.90
2022-12-23T03:50:01.941Z,9.90
2022-12-23T03:52:39.081Z,9.90
2022-12-23T03:55:11.465Z,9.90
2022-12-23T03:57:44.995Z,9.90
2022-12-23T04:00:12.519Z,9.90
2022-12-23T04:02:55.964Z,9.90
2022-12-23T04:05:30.444Z,9.90
2022-12-23T04:08:24.967Z,9.90
2022-12-23T04:10:52.552Z,9.90
2022-12-23T04:13:19.576Z,9.90
2022-12-23T04:15:46.970Z,9.90
2022-12-23T04:18:14.100Z,9.90
2022-12-23T04:20:41.207Z,9.90
2022-12-23T04:23:08.067Z,9.90
2022-12-23T04:25:35.025Z,9.90
2022-12-23T04:28:01.986Z,9.90
2022-12-23T04:30:33.925Z,9.90
2022-12-23T04:33:02.346Z,9.90
2022-12-23T04:35:30.468Z,9.90
2022-12-23T04:37:57.614Z,9.90
2022-12-23T04:40:24.527Z,9.80
2022-12-23T04:42:51.393Z,9.80
2022-12-23T04:45:18.423Z,9.80
2022-12-23T04:47:45.370Z,9.80
2022-12-23T04:50:16.746Z,9.80
2022-12-23T04:52:44.284Z,9.80
2022-12-23T04:55:11.313Z,9.80
2022-12-23T04:57:38.296Z,9.80
2022-12-23T05:00:05.959Z,9.80
2022-12-23T05:02:33.090Z,9.80
2022-12-23T05:05:00.038Z,9.80
2022-12-23T05:07:26.908Z,9.80
2022-12-23T05:09:53.821Z,9.70
2022-12-23T05:12:20.699Z,9.70
2022-12-23T05:14:47.715Z,9.70
2022-12-23T05:17:14.595Z,9.80
2022-12-23T05:19:41.520Z,9.70
2022-12-23T05:22:08.454Z,9.70
2022-12-23T05:24:35.367Z,9.70
2022-12-23T05:27:02.299Z,9.70
2022-12-23T05:29:29.258Z,9.70
2022-12-23T05:31:56.237Z,9.70
2022-12-23T05:34:23.190Z,9.70
2022-12-23T05:36:50.141Z,9.70
2022-12-23T05:39:17.053Z,9.70
2022-12-23T05:41:44.233Z,9.70
2022-12-23T05:44:11.139Z,9.70
2022-12-23T05:46:38.154Z,9.70
2022-12-23T05:49:05.089Z,9.70
2022-12-23T05:51:31.980Z,9.70
2022-12-23T05:53:59.119Z,9.70
2022-12-23T05:56:26.084Z,9.70
2022-12-23T05:58:53.141Z,9.70
2022-12-23T06:01:20.260Z,9.70
2022-12-23T06:03:47.235Z,9.70
2022-12-23T06:06:14.328Z,9.70
2022-12-23T06:08:41.241Z,9.70
2022-12-23T06:11:08.230Z,9.70
2022-12-23T06:13:35.054Z,9.70
2022-12-23T06:16:02.011Z,9.70
2022-12-23T06:18:28.892Z,9.70
2022-12-23T06:20:55.841Z,9.70
2022-12-23T06:23:22.770Z,9.70
2022-12-23T06:25:49.625Z,9.70
2022-12-23T06:28:16.590Z,9.70
2022-12-23T06:30:43.513Z,9.70
2022-12-23T06:33:10.487Z,9.70
2022-12-23T06:35:37.357Z,9.70
2022-12-23T06:38:08.783Z,9.70
2022-12-23T06:40:38.732Z,9.70
2022-12-23T06:43:05.755Z,9.70
2022-12-23T06:45:32.705Z,9.70
2022-12-23T06:47:59.599Z,9.70
2022-12-23T06:50:26.692Z,9.70
2022-12-23T06:52:53.548Z,9.70
2022-12-23T06:55:20.497Z,9.70
2022-12-23T06:57:47.610Z,9.70
2022-12-23T07:00:15.349Z,9.70
2022-12-23T07:02:42.411Z,9.70
2022-12-23T07:05:09.618Z,9.70
2022-12-23T07:07:36.587Z,9.70
2022-12-23T07:10:03.911Z,9.70
2022-12-23T07:12:30.771Z,9.70
2022-12-23T07:14:57.825Z,9.70
2022-12-23T07:17:24.766Z,9.70
2022-12-23T07:19:51.642Z,9.70
2022-12-23T07:22:18.602Z,9.70
2022-12-23T07:24:45.477Z,9.70
2022-12-23T07:27:12.606Z,9.70
2022-12-23T07:29:39.549Z,9.70
2022-12-23T07:32:06.568Z,9.70
2022-12-23T07:34:36.052Z,9.70
2022-12-23T07:37:04.350Z,9.70
2022-12-23T07:39:31.329Z,9.70
2022-12-23T07:42:25.018Z,9.70
2022-12-23T07:44:45.376Z,9.70
2022-12-23T07:47:12.244Z,9.70
2022-12-23T07:49:39.213Z,9.70
2022-12-23T07:52:06.134Z,9.60
2022-12-23T07:54:33.013Z,9.70
2022-12-23T07:57:00.030Z,9.70
2022-12-23T07:59:27.417Z,9.70
2022-12-23T08:01:54.509Z,9.70
2022-12-23T08:04:21.730Z,9.60
2022-12-23T08:06:48.686Z,9.60
2022-12-23T08:09:15.544Z,9.60
2022-12-23T08:11:42.540Z,9.60
2022-12-23T08:14:09.582Z,9.60
2022-12-23T08:16:43.126Z,9.60
2022-12-23T08:19:10.686Z,9.60
2022-12-23T08:21:37.556Z,9.60
2022-12-23T08:24:04.716Z,9.60
2022-12-23T08:26:32.852Z,9.60
2022-12-23T08:29:00.536Z,9.60
2022-12-23T08:31:31.856Z,9.60
2022-12-23T08:34:00.126Z,9.60
2022-12-23T08:36:35.162Z,9.60
2022-12-23T08:39:05.944Z,9.60
2022-12-23T08:41:36.636Z,9.60
2022-12-23T08:44:04.486Z,9.60
2022-12-23T08:46:31.485Z,9.60
2022-12-23T08:48:58.613Z,9.60
2022-12-23T08:51:26.502Z,9.60
2022-12-23T08:54:00.175Z,9.60
2022-12-23T08:56:38.934Z,9.60
2022-12-23T08:59:07.727Z,9.60
2022-12-23T09:01:35.396Z,9.60
2022-12-23T09:04:04.343Z,9.60
2022-12-23T09:06:35.629Z,9.60
2022-12-23T09:09:03.213Z,9.60
2022-12-23T09:11:30.379Z,9.60
2022-12-23T09:14:00.461Z,9.60
2022-12-23T09:16:28.401Z,9.60
2022-12-23T09:18:56.116Z,9.60
2022-12-23T09:21:24.260Z,9.60
2022-12-23T09:23:51.612Z,9.60
2022-12-23T09:26:24.834Z,9.60
2022-12-23T09:28:52.408Z,9.60
2022-12-23T09:31:20.064Z,9.60
2022-12-23T09:33:49.240Z,9.60
2022-12-23T09:36:16.844Z,9.60
2022-12-23T09:38:44.270Z,9.60
2022-12-23T09:41:22.956Z,9.60
2022-12-23T09:43:58.723Z,9.60
2022-12-23T09:46:28.720Z,9.60
2022-12-23T09:49:17.537Z,9.50
2022-12-23T09:51:47.344Z,9.50
2022-12-23T09:54:17.767Z,9.50
2022-12-23T09:56:59.052Z,9.60
2022-12-23T09:59:44.090Z,9.50
2022-12-23T10:02:43.087Z,9.50
2022-12-23T10:05:30.315Z,9.50
2022-12-23T10:08:07.612Z,9.50
2022-12-23T10:10:49.842Z,9.50
2022-12-23T10:13:29.769Z,9.50
2022-12-23T10:16:03.380Z,9.50
2022-12-23T10:19:08.367Z,9.50
2022-12-23T10:21:45.384Z,9.50
2022-12-23T10:24:22.575Z,9.50
2022-12-23T10:26:53.103Z,9.60
2022-12-23T10:29:22.852Z,9.60
2022-12-23T10:32:11.547Z,9.60
2022-12-23T10:35:07.493Z,9.60
2022-12-23T10:37:40.649Z,9.60
2022-12-23T10:40:41.755Z,9.60
2022-12-23T10:43:32.018Z,9.60
2022-12-23T10:46:20.982Z,9.60
2022-12-23T10:49:05.749Z,9.60
2022-12-23T10:51:45.762Z,9.60
2022-12-23T10:54:22.141Z,9.60
2022-12-23T10:56:49.254Z,9.60
2022-12-23T10:59:23.318Z,9.70
2022-12-23T11:01:57.853Z,9.60
2022-12-23T11:04:35.759Z,9.70
2022-12-23T11:07:42.042Z,9.60
2022-12-23T11:10:04.671Z,9.60
2022-12-23T11:12:45.636Z,9.60
2022-12-23T11:15:27.571Z,9.60
2022-12-23T11:17:58.799Z,9.60
2022-12-23T11:20:26.139Z,9.60
2022-12-23T11:23:04.829Z,9.60
2022-12-23T11:25:41.498Z,9.60
2022-12-23T11:28:11.206Z,9.60
2022-12-23T11:30:39.129Z,9.60
2022-12-23T11:33:06.609Z,9.60
2022-12-23T11:35:36.841Z,9.60
2022-12-23T11:38:04.430Z,9.60
2022-12-23T11:40:38.175Z,9.60
2022-12-23T11:43:12.968Z,9.60
2022-12-23T11:45:40.009Z,9.60
2022-12-23T11:48:26.242Z,9.60
2022-12-23T11:51:01.958Z,9.60
2022-12-23T11:53:29.322Z,9.50
2022-12-23T11:56:14.828Z,9.50
2022-12-23T11:58:59.421Z,9.50
2022-12-23T12:01:26.463Z,9.50
2022-12-23T12:04:16.968Z,9.50
2022-12-23T12:06:51.169Z,9.50
2022-12-23T12:09:20.963Z,9.50
2022-12-23T12:11:51.956Z,9.50
2022-12-23T12:14:41.018Z,9.50
2022-12-23T12:17:11.053Z,9.50
2022-12-23T12:19:53.822Z,9.50
2022-12-23T12:22:35.900Z,9.50
2022-12-23T12:25:37.984Z,9.50
2022-12-23T12:28:16.675Z,9.50
2022-12-23T12:31:24.437Z,9.60
2022-12-23T12:33:58.132Z,9.60
2022-12-23T12:36:46.377Z,9.60
2022-12-23T12:39:20.939Z,9.60
2022-12-23T12:42:05.795Z,9.70
2022-12-23T12:45:11.930Z,9.70
2022-12-23T12:47:55.748Z,9.70
2022-12-23T12:50:29.453Z,9.70
2022-12-23T12:53:03.570Z,9.70
2022-12-23T12:55:34.911Z,9.70
2022-12-23T12:58:05.243Z,9.70
2022-12-23T13:01:07.355Z,9.70
2022-12-23T13:04:16.037Z,9.70
2022-12-23T13:06:50.887Z,9.70
2022-12-23T13:09:51.280Z,9.70
2022-12-23T13:12:43.102Z,9.70
2022-12-23T13:15:19.341Z,9.70
2022-12-23T13:18:06.602Z,9.70
2022-12-23T13:20:46.491Z,9.70
2022-12-23T13:23:42.737Z,9.70
2022-12-23T13:26:40.428Z,9.70
2022-12-23T13:29:30.593Z,9.70
2022-12-23T13:32:06.074Z,9.70
2022-12-23T13:34:45.605Z,9.70
2022-12-23T13:37:33.623Z,9.70
2022-12-23T13:40:29.427Z,9.70
2022-12-23T13:43:04.965Z,9.70
2022-12-23T13:45:39.256Z,9.70
2022-12-23T13:48:34.312Z,9.70
2022-12-23T13:51:19.184Z,9.70
2022-12-23T13:53:50.031Z,9.70
2022-12-23T13:56:53.372Z,9.70
2022-12-23T13:59:22.485Z,9.70
2022-12-23T14:01:53.087Z,9.70
2022-12-23T14:04:28.922Z,9.80
2022-12-23T14:07:05.102Z,9.70
2022-12-23T14:09:39.230Z,9.80
2022-12-23T14:12:21.114Z,9.70
2022-12-23T14:15:17.084Z,9.70
2022-12-23T14:18:04.949Z,9.70
2022-12-23T14:20:56.914Z,9.70
2022-12-23T14:23:29.389Z,9.70
2022-12-23T14:26:17.889Z,9.70
2022-12-23T14:29:02.160Z,9.70
2022-12-23T14:31:41.336Z,9.70
2022-12-23T14:34:18.953Z,9.70
2022-12-23T14:37:20.893Z,9.70
2022-12-23T14:39:49.534Z,9.80
2022-12-23T14:42:36.396Z,9.80
2022-12-23T14:45:29.644Z,9.80
2022-12-23T14:47:58.519Z,9.80
2022-12-23T14:50:43.571Z,9.80
2022-12-23T14:53:36.024Z,9.80
2022-12-23T14:56:15.456Z,9.90
2022-12-23T14:58:54.373Z,9.90
2022-12-23T15:01:39.416Z,9.90
2022-12-23T15:04:27.347Z,9.90
2022-12-23T15:07:04.083Z,9.90
2022-12-23T15:09:43.952Z,10.00
2022-12-23T15:12:18.721Z,10.00
2022-12-23T15:14:51.352Z,10.00
2022-12-23T15:17:27.902Z,10.10
2022-12-23T15:20:16.654Z,10.10
2022-12-23T15:22:45.879Z,10.10
2022-12-23T15:25:31.663Z,10.10
2022-12-23T15:28:02.461Z,10.20
2022-12-23T15:30:36.477Z,10.20
2022-12-23T15:33:34.989Z,10.30
2022-12-23T15:35:57.955Z,10.30
2022-12-23T15:38:29.772Z,10.30
2022-12-23T15:41:00.547Z,10.30
2022-12-23T15:43:27.678Z,10.40
2022-12-23T15:45:55.182Z,10.40
2022-12-23T15:48:31.877Z,10.50
2022-12-23T15:51:06.807Z,10.50
2022-12-23T15:53:37.536Z,10.70
2022-12-23T15:56:09.257Z,10.80
2022-12-23T15:58:40.464Z,11.00
2022-12-23T16:01:13.632Z,11.00
2022-12-23T16:03:43.963Z,11.10
2022-12-23T16:06:27.942Z,11.20
2022-12-23T16:09:01.560Z,11.30
2022-12-23T16:11:53.539Z,11.30
2022-12-23T16:14:40.754Z,11.30
2022-12-23T16:17:07.873Z,11.30
2022-12-23T16:19:42.633Z,11.20
2022-12-23T16:22:18.408Z,11.30
2022-12-23T16:24:49.057Z,11.30
2022-12-23T16:27:18.994Z,11.30
2022-12-23T16:29:47.783Z,11.30
2022-12-23T16:32:19.524Z,11.30
2022-12-23T16:34:53.541Z,11.30
2022-12-23T16:37:20.670Z,11.30
2022-12-23T16:39:47.670Z,11.30
2022-12-23T16:42:14.608Z,11.30
2022-12-23T16:44:41.544Z,11.30
2022-12-23T16:47:17.408Z,11.30
2022-12-23T16:49:44.961Z,11.30
2022-12-23T16:52:14.244Z,11.30
2022-12-23T16:54:43.346Z,11.30
2022-12-23T16:57:10.659Z,11.20
2022-12-23T16:59:41.250Z,11.20
2022-12-23T17:02:19.450Z,11.20
2022-12-23T17:04:46.582Z,11.20
2022-12-23T17:07:13.551Z,11.30
2022-12-23T17:09:40.520Z,11.20
2022-12-23T17:12:09.417Z,11.20
2022-12-23T17:14:36.359Z,11.30
2022-12-23T17:17:14.155Z,11.20
2022-12-23T17:19:41.706Z,11.20
2022-12-23T17:22:12.923Z,11.10
2022-12-23T17:24:40.145Z,11.10
2022-12-23T17:27:16.208Z,11.20
2022-12-23T17:29:43.684Z,11.10
2022-12-23T17:32:12.373Z,11.10
2022-12-23T17:34:39.890Z,11.10
2022-12-23T17:37:18.315Z,11.10
2022-12-23T17:39:46.484Z,11.30
2022-12-23T17:42:24.952Z,11.20
2022-12-23T17:44:52.605Z,11.20
2022-12-23T17:47:22.390Z,11.20
2022-12-23T17:49:50.281Z,11.20
2022-12-23T17:52:23.345Z,11.20
2022-12-23T17:54:51.556Z,11.20
2022-12-23T17:57:24.475Z,11.20
2022-12-23T17:59:52.990Z,11.20
2022-12-23T18:02:33.212Z,11.20
2022-12-23T18:05:00.278Z,11.20
2022-12-23T18:07:27.336Z,11.10
2022-12-23T18:09:54.636Z,11.20
2022-12-23T18:12:30.422Z,11.10
2022-12-23T18:14:57.771Z,11.10
2022-12-23T18:17:24.853Z,11.10
2022-12-23T18:19:52.225Z,11.10
2022-12-23T18:22:22.906Z,11.10
2022-12-23T18:24:57.009Z,11.20
2022-12-23T18:27:26.137Z,11.20
2022-12-23T18:29:53.263Z,11.20
2022-12-23T18:32:26.493Z,11.20
2022-12-23T18:34:54.723Z,11.20
2022-12-23T18:37:22.335Z,11.20
2022-12-23T18:39:49.384Z,11.30
2022-12-23T18:42:19.388Z,11.20
2022-12-23T18:44:48.537Z,11.20
2022-12-23T18:47:22.791Z,11.20
2022-12-23T18:49:49.855Z,11.20
2022-12-23T18:52:16.940Z,11.10
2022-12-23T18:54:44.025Z,11.10
2022-12-23T18:57:11.184Z,11.20
2022-12-23T18:59:40.026Z,11.10
2022-12-23T19:02:08.170Z,11.10
2022-12-23T19:04:35.364Z,11.20
2022-12-23T19:07:02.643Z,11.20
2022-12-23T19:09:29.856Z,11.30
2022-12-23T19:11:57.372Z,11.30
2022-12-23T19:14:24.384Z,11.20
2022-12-23T19:16:52.560Z,11.20
2022-12-23T19:19:20.623Z,11.20
2022-12-23T19:21:47.776Z,11.20
2022-12-23T19:24:15.186Z,11.10
2022-12-23T19:26:42.123Z,11.10
2022-12-23T19:29:09.214Z,11.10
2022-12-23T19:31:36.204Z,11.10
2022-12-23T19:34:03.521Z,11.10
2022-12-23T19:36:30.909Z,11.10
2022-12-23T19:38:58.085Z,11.00
2022-12-23T19:41:25.520Z,11.00
2022-12-23T19:43:52.619Z,10.90
2022-12-23T19:46:19.532Z,11.00
2022-12-23T19:48:52.620Z,11.00
2022-12-23T19:51:19.754Z,11.00
2022-12-23T19:53:51.020Z,10.90
2022-12-23T19:56:22.094Z,10.90
2022-12-23T19:58:51.176Z,11.00
2022-12-23T20:01:22.336Z,10.90
2022-12-23T20:03:52.489Z,10.90
2022-12-23T20:06:21.681Z,10.90
2022-12-23T20:08:48.979Z,11.00
2022-12-23T20:11:26.247Z,11.00
2022-12-23T20:13:56.040Z,11.00
2022-12-23T20:16:24.584Z,11.00
2022-12-23T20:18:52.576Z,11.00
2022-12-23T20:31:27.413Z,11.00
2022-12-23T20:33:55.905Z,11.00
2022-12-23T20:36:25.022Z,10.90
2022-12-23T20:38:52.487Z,10.90
2022-12-23T20:41:22.419Z,11.00
2022-12-23T20:44:23.481Z,11.00
2022-12-23T20:46:37.804Z,11.00
2022-12-23T20:49:10.752Z,11.00
2022-12-23T20:51:38.778Z,11.00
2022-12-23T20:54:07.437Z,11.00
2022-12-23T20:56:34.464Z,11.00
2022-12-23T20:59:04.360Z,11.00
2022-12-23T21:01:39.826Z,11.00
2022-12-23T21:04:13.141Z,10.90
2022-12-23T21:06:41.826Z,10.90
2022-12-23T21:09:11.700Z,10.90
2022-12-23T21:11:41.683Z,10.90
2022-12-23T21:14:09.526Z,10.90
2022-12-23T21:16:38.223Z,10.90
2022-12-23T21:19:07.286Z,11.00
2022-12-23T21:21:34.790Z,11.00
2022-12-23T21:24:06.789Z,11.00
2022-12-23T21:26:36.085Z,11.00
2022-12-23T21:29:06.092Z,10.90
2022-12-23T21:31:37.308Z,11.00
2022-12-23T21:34:05.598Z,11.00
2022-12-23T21:36:36.507Z,11.00
2022-12-23T21:39:05.497Z,10.90
2022-12-23T21:41:36.566Z,10.90
2022-12-23T21:44:04.751Z,10.90
2022-12-23T21:52:32.338Z,10.90
2022-12-23T21:55:28.001Z,10.90
2022-12-23T21:57:55.040Z,10.90
2022-12-23T22:00:22.439Z,10.90
2022-12-23T22:02:52.265Z,10.90
2022-12-23T22:05:19.403Z,10.90
2022-12-23T22:07:46.564Z,10.90
2022-12-23T22:10:18.768Z,10.90
2022-12-23T22:12:45.899Z,10.80
2022-12-23T22:15:12.926Z,10.80
2022-12-23T22:17:41.455Z,10.80
2022-12-23T22:20:11.172Z,10.80
2022-12-23T22:22:38.173Z,10.80
2022-12-23T22:25:05.527Z,10.80
2022-12-23T22:27:32.743Z,10.80
2022-12-23T22:29:59.956Z,10.80
2022-12-23T22:32:28.266Z,10.80
2022-12-23T22:34:57.750Z,10.70
2022-12-23T22:37:25.109Z,10.70
2022-12-23T22:39:53.866Z,10.70
2022-12-23T22:42:20.988Z,10.70
2022-12-23T22:44:48.109Z,10.60
2022-12-23T22:47:15.469Z,10.60
2022-12-23T22:49:42.804Z,10.60
2022-12-23T22:52:09.870Z,10.60
2022-12-23T22:54:37.176Z,10.60
2022-12-23T22:57:05.917Z,10.50
2022-12-23T22:59:33.141Z,10.50
2022-12-23T23:02:00.493Z,10.50
2022-12-23T23:04:28.725Z,10.50
2022-12-23T23:06:55.758Z,10.50
2022-12-23T23:09:22.878Z,10.40
2022-12-23T23:11:50.172Z,10.40
2022-12-23T23:14:18.628Z,10.40
2022-12-23T23:16:45.928Z,10.40
2022-12-23T23:19:15.432Z,10.30
2022-12-23T23:21:42.606Z,10.40
2022-12-23T23:24:12.145Z,10.40
2022-12-23T23:26:39.468Z,10.30
2022-12-23T23:29:07.122Z,10.30
2022-12-23T23:31:43.191Z,10.30
2022-12-23T23:34:12.076Z,10.30
2022-12-23T23:36:41.555Z,10.30
2022-12-23T23:39:08.800Z,10.20
2022-12-23T23:41:35.899Z,10.20
2022-12-23T23:44:03.225Z,10.20
2022-12-23T23:46:34.019Z,10.20
2022-12-23T23:49:02.162Z,10.20
2022-12-23T23:51:29.568Z,10.10
2022-12-23T23:53:56.613Z,10.20
2022-12-23T23:56:25.799Z,10.10
2022-12-23T23:58:53.669Z,10.20
